createdAt,value
2023-01-27T00:01:43.081Z,10.50
2023-01-27T00:04:11.280Z,10.47
2023-01-27T00:06:39.494Z,10.33
2023-01-27T00:09:07.703Z,9.73
2023-01-27T00:11:55.164Z,10.13
2023-01-27T00:14:23.342Z,8.70
2023-01-27T00:16:51.564Z,9.63
2023-01-27T00:19:19.918Z,10.53
2023-01-27T00:22:05.591Z,10.30
2023-01-27T00:24:36.910Z,9.20
2023-01-27T00:27:09.044Z,8.90
2023-01-27T00:29:37.386Z,9.47
2023-01-27T00:32:23.552Z,9.70
2023-01-27T00:34:51.912Z,9.70
2023-01-27T00:37:20.782Z,9.67
2023-01-27T00:39:48.936Z,8.77
2023-01-27T00:42:18.462Z,9.77
2023-01-27T00:45:07.119Z,9.90
2023-01-27T00:47:35.291Z,9.73
2023-01-27T00:50:03.587Z,10.33
2023-01-27T00:52:31.734Z,9.40
2023-01-27T00:54:59.884Z,8.90
2023-01-27T00:57:29.586Z,9.03
2023-01-27T00:59:59.712Z,8.20
2023-01-27T01:02:28.429Z,9.00
2023-01-27T01:04:57.521Z,8.90
2023-01-27T01:07:25.754Z,8.03
2023-01-27T01:09:53.961Z,7.70
2023-01-27T01:12:22.183Z,8.40
2023-01-27T01:14:51.733Z,8.00
2023-01-27T01:17:19.918Z,8.10
2023-01-27T01:19:48.090Z,8.23
2023-01-27T01:22:16.248Z,8.40
2023-01-27T01:24:44.413Z,6.90
2023-01-27T01:27:13.222Z,8.10
2023-01-27T01:29:41.408Z,7.73
2023-01-27T01:32:11.001Z,8.40
2023-01-27T01:34:39.353Z,9.20
2023-01-27T01:37:07.550Z,9.07
2023-01-27T01:39:35.761Z,8.53
2023-01-27T01:42:03.991Z,10.30
2023-01-27T01:44:32.891Z,10.17
2023-01-27T01:47:01.085Z,9.03
2023-01-27T01:49:31.906Z,9.90
2023-01-27T01:52:01.881Z,10.30
2023-01-27T01:54:31.671Z,9.60
2023-01-27T01:57:02.599Z,10.10
2023-01-27T01:59:33.999Z,10.90
2023-01-27T02:02:04.616Z,10.03
2023-01-27T02:04:35.995Z,9.83
2023-01-27T02:07:06.920Z,10.20
2023-01-27T02:09:35.401Z,10.77
2023-01-27T02:12:03.773Z,9.07
2023-01-27T02:14:32.112Z,8.87
2023-01-27T02:17:00.308Z,9.40
2023-01-27T02:19:34.319Z,7.93
2023-01-27T02:22:05.066Z,8.17
2023-01-27T02:24:36.961Z,8.50
2023-01-27T02:27:06.519Z,7.40
2023-01-27T02:29:34.692Z,7.40
2023-01-27T02:32:03.033Z,8.83
2023-01-27T02:34:32.256Z,8.17
2023-01-27T02:37:01.731Z,7.80
2023-01-27T02:39:31.383Z,6.97
2023-01-27T02:41:59.734Z,8.13
2023-01-27T02:44:29.400Z,7.50
2023-01-27T02:46:57.614Z,7.03
2023-01-27T02:49:25.858Z,8.13
2023-01-27T02:51:54.067Z,8.13
2023-01-27T02:54:22.270Z,8.40
2023-01-27T02:56:50.563Z,8.57
2023-01-27T02:59:19.134Z,8.37
2023-01-27T03:01:48.753Z,8.27
2023-01-27T03:04:16.932Z,7.63
2023-01-27T03:06:45.137Z,8.63
2023-01-27T03:09:13.358Z,8.23
2023-01-27T03:11:59.048Z,8.47
2023-01-27T03:14:44.942Z,7.90
2023-01-27T03:17:32.370Z,8.00
2023-01-27T03:20:00.578Z,8.90
2023-01-27T03:22:28.812Z,8.30
2023-01-27T03:24:56.973Z,8.90
2023-01-27T03:27:25.140Z,7.97
2023-01-27T03:29:56.414Z,8.17
2023-01-27T03:32:26.302Z,7.93
2023-01-27T03:34:57.703Z,7.63
2023-01-27T03:37:43.829Z,8.17
2023-01-27T03:40:30.399Z,7.97
2023-01-27T03:43:16.477Z,7.67
2023-01-27T03:46:04.814Z,8.27
2023-01-27T03:48:34.862Z,7.50
2023-01-27T03:51:03.571Z,8.23
2023-01-27T03:53:31.907Z,7.67
2023-01-27T03:56:00.097Z,8.70
2023-01-27T03:58:29.088Z,8.40
2023-01-27T04:00:58.071Z,8.50
2023-01-27T04:03:44.567Z,8.80
2023-01-27T04:06:32.885Z,8.03
2023-01-27T04:09:01.936Z,9.03
2023-01-27T04:11:48.642Z,9.00
2023-01-27T04:14:17.046Z,9.33
2023-01-27T04:16:45.500Z,8.20
2023-01-27T04:19:13.885Z,8.20
2023-01-27T04:21:43.626Z,7.40
2023-01-27T04:24:16.770Z,9.00
2023-01-27T04:26:45.684Z,7.93
2023-01-27T04:29:14.367Z,8.40
2023-01-27T04:31:42.866Z,6.97
2023-01-27T04:34:12.073Z,8.03
2023-01-27T04:36:40.425Z,8.20
2023-01-27T04:39:10.356Z,8.83
2023-01-27T04:41:38.933Z,8.40
2023-01-27T04:44:07.730Z,7.73
2023-01-27T04:46:36.181Z,7.47
2023-01-27T04:49:04.672Z,7.37
2023-01-27T04:51:32.962Z,7.67
2023-01-27T04:54:01.320Z,7.63
2023-01-27T04:56:31.504Z,6.60
2023-01-27T04:59:00.467Z,7.67
2023-01-27T05:01:28.856Z,6.37
2023-01-27T05:03:57.113Z,6.80
2023-01-27T05:06:25.451Z,8.07
2023-01-27T05:08:53.997Z,6.70
2023-01-27T05:11:22.559Z,7.37
2023-01-27T05:13:52.157Z,7.60
2023-01-27T05:16:21.069Z,6.40
2023-01-27T05:18:50.122Z,7.47
2023-01-27T05:21:18.985Z,6.70
2023-01-27T05:23:47.461Z,7.17
2023-01-27T05:26:16.806Z,6.70
2023-01-27T05:28:45.850Z,7.07
2023-01-27T05:31:16.351Z,7.37
2023-01-27T05:33:44.557Z,7.50
2023-01-27T05:36:13.973Z,7.50
2023-01-27T05:38:42.295Z,6.70
2023-01-27T05:41:11.146Z,6.70
2023-01-27T05:43:40.064Z,6.60
2023-01-27T05:46:09.343Z,5.83
2023-01-27T05:48:39.964Z,6.63
2023-01-27T05:51:08.346Z,7.80
2023-01-27T05:53:36.916Z,7.17
2023-01-27T05:56:05.578Z,6.80
2023-01-27T05:58:33.922Z,6.73
2023-01-27T06:01:08.400Z,7.33
2023-01-27T06:03:36.717Z,6.60
2023-01-27T06:06:06.697Z,7.10
2023-01-27T06:08:34.870Z,7.77
2023-01-27T06:11:03.088Z,7.03
2023-01-27T06:13:31.309Z,7.90
2023-01-27T06:15:59.569Z,8.40
2023-01-27T06:18:27.715Z,8.70
2023-01-27T06:20:59.157Z,7.80
2023-01-27T06:23:29.014Z,7.50
2023-01-27T06:25:57.860Z,8.00
2023-01-27T06:28:29.523Z,7.53
2023-01-27T06:30:58.287Z,7.87
2023-01-27T06:33:26.501Z,7.47
2023-01-27T06:36:01.921Z,7.83
2023-01-27T06:38:31.547Z,7.57
2023-01-27T06:40:59.753Z,7.90
2023-01-27T06:43:28.209Z,5.53
2023-01-27T06:45:57.528Z,6.50
2023-01-27T06:48:26.174Z,6.50
2023-01-27T06:50:54.370Z,7.07
2023-01-27T06:53:22.580Z,7.03
2023-01-27T06:55:56.625Z,7.20
2023-01-27T06:58:24.813Z,7.73
2023-01-27T07:00:53.528Z,8.00
2023-01-27T07:03:21.711Z,6.60
2023-01-27T07:05:49.988Z,6.70
2023-01-27T07:08:18.236Z,6.70
2023-01-27T07:10:46.410Z,7.07
2023-01-27T07:13:16.375Z,6.93
2023-01-27T07:15:44.725Z,8.33
2023-01-27T07:18:13.727Z,7.10
2023-01-27T07:20:42.113Z,8.13
2023-01-27T07:23:11.327Z,7.97
2023-01-27T07:25:39.656Z,7.30
2023-01-27T07:28:08.116Z,8.00
2023-01-27T07:30:39.174Z,7.23
2023-01-27T07:33:07.980Z,6.90
2023-01-27T07:35:37.060Z,9.63
2023-01-27T07:38:05.622Z,11.80
2023-01-27T07:40:33.956Z,12.57
2023-01-27T07:43:02.463Z,8.83
2023-01-27T07:45:31.327Z,8.20
2023-01-27T07:48:04.879Z,7.40
2023-01-27T07:50:33.418Z,8.90
2023-01-27T07:53:01.962Z,7.33
2023-01-27T07:55:30.471Z,7.00
2023-01-27T07:57:59.041Z,6.70
2023-01-27T08:00:28.147Z,7.47
2023-01-27T08:02:56.953Z,8.73
2023-01-27T08:05:27.021Z,13.20
2023-01-27T08:07:57.724Z,7.73
2023-01-27T08:10:26.928Z,9.20
2023-01-27T08:12:55.120Z,7.20
2023-01-27T08:15:23.321Z,7.43
2023-01-27T08:17:55.250Z,7.57
2023-01-27T08:20:23.596Z,7.83
2023-01-27T08:22:53.115Z,8.37
2023-01-27T08:25:21.539Z,6.83
2023-01-27T08:27:51.640Z,9.50
2023-01-27T08:30:20.195Z,7.40
2023-01-27T08:32:48.506Z,6.50
2023-01-27T08:35:16.839Z,6.90
2023-01-27T08:37:46.756Z,5.60
2023-01-27T08:40:17.926Z,5.20
2023-01-27T08:42:46.171Z,5.57
2023-01-27T08:45:14.421Z,5.60
2023-01-27T08:47:42.585Z,6.47
2023-01-27T08:50:11.608Z,6.90
2023-01-27T08:52:40.004Z,6.93
2023-01-27T08:55:08.274Z,6.47
2023-01-27T08:57:37.975Z,7.20
2023-01-27T09:00:07.065Z,7.60
2023-01-27T09:02:35.319Z,8.17
2023-01-27T09:05:03.719Z,8.20
2023-01-27T09:07:33.094Z,8.47
2023-01-27T09:10:13.585Z,7.47
2023-01-27T09:12:43.902Z,9.40
2023-01-27T09:15:13.420Z,9.43
2023-01-27T09:17:41.885Z,12.60
2023-01-27T09:20:11.153Z,10.30
2023-01-27T09:22:41.062Z,9.63
2023-01-27T09:25:09.895Z,9.53
2023-01-27T09:27:39.894Z,9.33
2023-01-27T09:30:11.242Z,7.63
2023-01-27T09:32:39.630Z,8.70
2023-01-27T09:35:08.580Z,7.70
2023-01-27T09:37:41.027Z,7.97
2023-01-27T09:40:13.163Z,8.50
2023-01-27T09:42:52.180Z,8.60
2023-01-27T09:45:32.055Z,8.23
2023-01-27T09:48:10.263Z,9.77
2023-01-27T09:50:44.294Z,9.67
2023-01-27T09:53:26.194Z,9.13
2023-01-27T09:55:57.464Z,10.27
2023-01-27T09:58:29.985Z,8.50
2023-01-27T10:01:07.516Z,9.73
2023-01-27T10:03:50.583Z,10.00
2023-01-27T10:06:34.593Z,9.63
2023-01-27T10:09:11.771Z,10.40
2023-01-27T10:11:43.623Z,11.03
2023-01-27T10:14:19.657Z,9.23
2023-01-27T10:16:59.909Z,10.60
2023-01-27T10:19:32.649Z,9.60
2023-01-27T10:22:05.182Z,8.40
2023-01-27T10:24:38.433Z,9.77
2023-01-27T10:27:09.278Z,9.83
2023-01-27T10:29:40.437Z,8.73
2023-01-27T10:32:11.186Z,9.53
2023-01-27T10:34:41.326Z,10.03
2023-01-27T10:37:16.878Z,8.07
2023-01-27T10:39:48.986Z,10.03
2023-01-27T10:42:23.159Z,9.67
2023-01-27T10:45:00.383Z,9.00
2023-01-27T10:47:35.189Z,8.90
2023-01-27T10:50:04.791Z,9.43
2023-01-27T10:52:36.364Z,10.23
2023-01-27T10:55:07.823Z,10.00
2023-01-27T10:57:38.156Z,11.17
2023-01-27T11:00:37.993Z,10.83
2023-01-27T11:03:04.427Z,17.03
2023-01-27T11:05:35.188Z,18.00
2023-01-27T11:08:05.465Z,14.97
2023-01-27T11:10:37.193Z,11.97
2023-01-27T11:13:06.733Z,17.10
2023-01-27T11:15:35.684Z,12.57
2023-01-27T11:18:10.571Z,11.07
2023-01-27T11:20:41.021Z,10.67
2023-01-27T11:23:15.321Z,12.00
2023-01-27T11:25:48.670Z,10.43
2023-01-27T11:28:21.536Z,10.03
2023-01-27T11:30:53.058Z,11.30
2023-01-27T11:33:24.703Z,9.03
2023-01-27T11:35:53.780Z,9.70
2023-01-27T11:38:23.561Z,11.00
2023-01-27T11:40:52.832Z,10.60
2023-01-27T11:43:22.101Z,10.07
2023-01-27T11:45:51.937Z,10.67
2023-01-27T11:48:23.471Z,11.93
2023-01-27T11:50:53.430Z,11.33
2023-01-27T11:53:23.170Z,10.83
2023-01-27T11:55:52.554Z,11.80
2023-01-27T11:58:24.319Z,23.07
2023-01-27T12:00:56.300Z,20.00
2023-01-27T12:03:28.590Z,14.30
2023-01-27T12:06:00.994Z,10.13
2023-01-27T12:08:39.780Z,11.53
2023-01-27T12:11:21.838Z,10.77
2023-01-27T12:13:51.466Z,11.60
2023-01-27T12:16:19.837Z,11.30
2023-01-27T12:18:50.473Z,11.13
2023-01-27T12:21:20.176Z,10.97
2023-01-27T12:23:50.642Z,10.80
2023-01-27T12:26:30.231Z,9.63
2023-01-27T12:29:00.817Z,10.13
2023-01-27T12:31:29.946Z,10.20
2023-01-27T12:34:00.897Z,10.87
2023-01-27T12:36:30.731Z,10.90
2023-01-27T12:39:01.390Z,10.63
2023-01-27T12:41:30.566Z,9.90
2023-01-27T12:44:00.250Z,12.00
2023-01-27T12:46:28.935Z,16.90
2023-01-27T12:49:03.599Z,50.90
2023-01-27T12:51:40.962Z,41.80
2023-01-27T12:54:21.899Z,14.53
2023-01-27T12:56:50.696Z,12.10
2023-01-27T12:59:21.348Z,9.93
2023-01-27T13:01:59.313Z,9.60
2023-01-27T13:04:28.911Z,9.00
2023-01-27T13:07:05.113Z,10.20
2023-01-27T13:09:34.950Z,9.00
2023-01-27T13:12:04.140Z,10.27
2023-01-27T13:14:34.961Z,8.83
2023-01-27T13:17:03.635Z,9.70
2023-01-27T13:19:36.800Z,9.80
2023-01-27T13:22:06.734Z,11.70
2023-01-27T13:24:36.954Z,10.80
2023-01-27T13:27:06.933Z,11.40
2023-01-27T13:29:36.576Z,9.43
2023-01-27T13:32:06.923Z,10.67
2023-01-27T13:34:38.393Z,10.13
2023-01-27T13:37:11.555Z,10.17
2023-01-27T13:39:49.584Z,9.57
2023-01-27T13:42:21.183Z,10.60
2023-01-27T13:44:51.180Z,10.33
2023-01-27T13:47:22.028Z,10.23
2023-01-27T13:49:56.841Z,11.50
2023-01-27T13:52:26.832Z,11.57
2023-01-27T13:54:55.094Z,10.60
2023-01-27T13:57:41.543Z,8.80
2023-01-27T14:00:12.794Z,11.03
2023-01-27T14:02:47.196Z,9.90
2023-01-27T14:05:36.405Z,9.47
2023-01-27T14:08:10.660Z,9.00
2023-01-27T14:10:42.025Z,10.70
2023-01-27T14:13:17.426Z,10.13
2023-01-27T14:15:49.802Z,10.90
2023-01-27T14:18:20.886Z,10.33
2023-01-27T14:20:57.350Z,10.70
2023-01-27T14:23:31.357Z,10.60
2023-01-27T14:26:06.602Z,10.90
2023-01-27T14:28:38.766Z,10.17
2023-01-27T14:31:11.659Z,9.07
2023-01-27T14:33:48.034Z,9.70
2023-01-27T14:36:18.885Z,11.13
2023-01-27T14:38:56.690Z,10.67
2023-01-27T14:41:29.136Z,11.23
2023-01-27T14:44:01.918Z,10.60
2023-01-27T14:46:39.134Z,10.20
2023-01-27T14:49:09.734Z,11.67
2023-01-27T14:51:41.235Z,10.10
2023-01-27T14:54:20.797Z,9.83
2023-01-27T14:56:58.237Z,11.47
2023-01-27T14:59:30.944Z,11.10
2023-01-27T15:02:03.957Z,11.40
2023-01-27T15:04:37.705Z,9.87
2023-01-27T15:07:10.427Z,9.83
2023-01-27T15:09:56.297Z,10.47
2023-01-27T15:12:39.320Z,10.90
2023-01-27T15:15:26.363Z,10.40
2023-01-27T15:18:03.902Z,54.43
2023-01-27T15:20:37.112Z,13.83
2023-01-27T15:23:13.868Z,12.00
2023-01-27T15:25:45.438Z,10.50
2023-01-27T15:28:15.691Z,24.67
2023-01-27T15:31:09.261Z,14.83
2023-01-27T15:33:47.449Z,11.00
2023-01-27T15:36:32.302Z,10.70
2023-01-27T15:39:01.504Z,10.70
2023-01-27T15:41:30.060Z,10.67
2023-01-27T15:44:06.964Z,9.40
2023-01-27T15:46:36.588Z,11.03
2023-01-27T15:49:06.215Z,9.67
2023-01-27T15:51:37.490Z,9.90
2023-01-27T15:54:06.347Z,9.87
2023-01-27T15:56:46.678Z,9.27
2023-01-27T15:59:26.303Z,9.30
2023-01-27T16:02:02.196Z,10.30
2023-01-27T16:04:33.143Z,10.03
2023-01-27T16:07:02.925Z,9.43
2023-01-27T16:09:36.641Z,9.77
2023-01-27T16:12:06.638Z,11.10
2023-01-27T16:14:40.814Z,9.80
2023-01-27T16:17:18.050Z,9.23
2023-01-27T16:19:48.074Z,9.20
2023-01-27T16:22:19.371Z,9.67
2023-01-27T16:24:50.541Z,9.63
2023-01-27T16:27:24.069Z,9.80
2023-01-27T16:29:58.749Z,10.40
2023-01-27T16:32:30.428Z,10.13
2023-01-27T16:35:01.130Z,9.77
2023-01-27T16:37:30.377Z,10.73
2023-01-27T16:40:02.063Z,10.23
2023-01-27T16:42:31.905Z,10.17
2023-01-27T16:45:03.436Z,9.60
2023-01-27T16:47:37.522Z,10.73
2023-01-27T16:50:06.044Z,10.87
2023-01-27T16:52:42.211Z,10.73
2023-01-27T16:55:20.470Z,11.10
2023-01-27T16:57:48.854Z,10.20
2023-01-27T17:00:21.531Z,10.97
2023-01-27T17:02:50.333Z,9.50
2023-01-27T17:05:19.333Z,12.07
2023-01-27T17:08:02.853Z,10.00
2023-01-27T17:10:35.438Z,11.97
2023-01-27T17:13:04.362Z,11.63
2023-01-27T17:15:36.827Z,10.00
2023-01-27T17:18:10.664Z,11.13
2023-01-27T17:20:40.555Z,10.37
2023-01-27T17:23:09.150Z,12.40
2023-01-27T17:25:38.128Z,12.47
2023-01-27T17:28:09.042Z,10.57
2023-01-27T17:30:40.462Z,10.30
2023-01-27T17:33:09.899Z,10.40
2023-01-27T17:35:39.358Z,10.53
2023-01-27T17:38:12.894Z,11.07
2023-01-27T17:40:42.140Z,13.40
2023-01-27T17:43:24.568Z,16.40
2023-01-27T17:46:08.544Z,11.27
2023-01-27T17:48:40.571Z,13.70
2023-01-27T17:51:09.196Z,13.07
2023-01-27T17:53:38.247Z,10.53
2023-01-27T17:56:16.750Z,9.90
2023-01-27T17:58:46.674Z,11.00
2023-01-27T18:01:17.028Z,9.80
2023-01-27T18:03:45.397Z,10.17
2023-01-27T18:06:15.977Z,11.03
2023-01-27T18:08:50.373Z,10.10
2023-01-27T18:11:23.418Z,10.60
2023-01-27T18:13:53.344Z,12.40
2023-01-27T18:16:24.430Z,12.20
2023-01-27T18:18:52.928Z,12.57
2023-01-27T18:21:24.466Z,11.83
2023-01-27T18:23:55.515Z,9.30
2023-01-27T18:26:26.449Z,11.63
2023-01-27T18:28:55.993Z,11.30
2023-01-27T18:31:27.405Z,10.70
2023-01-27T18:34:20.112Z,11.50
2023-01-27T18:36:51.717Z,10.80
2023-01-27T18:39:28.543Z,11.07
2023-01-27T18:41:56.953Z,12.33
2023-01-27T18:44:27.153Z,12.23
2023-01-27T18:46:57.397Z,15.20
2023-01-27T18:49:25.671Z,11.10
2023-01-27T18:51:53.851Z,13.10
2023-01-27T18:54:22.024Z,11.53
2023-01-27T18:56:50.161Z,12.63
2023-01-27T18:59:18.384Z,14.00
2023-01-27T19:01:46.608Z,12.30
2023-01-27T19:04:16.185Z,12.53
2023-01-27T19:06:44.382Z,14.40
2023-01-27T19:09:12.673Z,14.57
2023-01-27T19:11:40.830Z,15.90
2023-01-27T19:14:09.062Z,14.90
2023-01-27T19:16:37.412Z,15.00
2023-01-27T19:19:06.172Z,16.43
2023-01-27T19:21:35.704Z,14.73
2023-01-27T19:24:03.902Z,15.37
2023-01-27T19:26:32.485Z,16.43
2023-01-27T19:29:00.669Z,16.43
2023-01-27T19:31:28.896Z,16.97
2023-01-27T19:34:01.201Z,15.90
2023-01-27T19:36:31.724Z,16.60
2023-01-27T19:39:02.898Z,14.30
2023-01-27T19:41:31.185Z,12.70
2023-01-27T19:44:00.344Z,12.90
2023-01-27T19:46:28.596Z,13.50
2023-01-27T19:48:56.801Z,11.80
2023-01-27T19:51:25.142Z,12.70
2023-01-27T19:53:53.398Z,13.27
2023-01-27T19:56:24.041Z,12.00
2023-01-27T19:58:54.020Z,12.17
2023-01-27T20:01:23.228Z,12.17
2023-01-27T20:03:51.842Z,12.33
2023-01-27T20:06:21.273Z,12.50
2023-01-27T20:08:49.951Z,10.10
2023-01-27T20:11:30.737Z,11.60
2023-01-27T20:13:59.151Z,11.53
2023-01-27T20:16:27.697Z,11.00
2023-01-27T20:18:56.851Z,12.47
2023-01-27T20:21:26.149Z,10.87
2023-01-27T20:23:54.494Z,13.90
2023-01-27T20:26:23.172Z,16.50
2023-01-27T20:28:52.788Z,18.17
2023-01-27T20:31:23.458Z,17.63
2023-01-27T20:33:51.917Z,18.07
2023-01-27T20:36:21.215Z,25.80
2023-01-27T20:38:49.401Z,19.60
2023-01-27T20:41:18.564Z,14.83
2023-01-27T20:43:46.785Z,26.33
2023-01-27T20:46:17.159Z,19.23
2023-01-27T20:48:45.557Z,16.10
2023-01-27T20:51:14.657Z,17.80
2023-01-27T20:53:45.377Z,14.53
2023-01-27T20:56:14.901Z,15.23
2023-01-27T20:58:43.309Z,16.73
2023-01-27T21:01:12.674Z,17.83
2023-01-27T21:03:42.495Z,19.63
2023-01-27T21:06:11.762Z,18.27
2023-01-27T21:08:42.471Z,16.67
2023-01-27T21:11:12.853Z,17.17
2023-01-27T21:13:41.082Z,18.60
2023-01-27T21:16:09.296Z,21.80
2023-01-27T21:18:37.563Z,18.67
2023-01-27T21:21:07.572Z,21.77
2023-01-27T21:23:36.672Z,20.80
2023-01-27T21:26:05.569Z,29.00
2023-01-27T21:28:34.199Z,22.10
2023-01-27T21:31:06.435Z,21.47
2023-01-27T21:33:35.938Z,16.37
2023-01-27T21:36:04.194Z,17.27
2023-01-27T21:38:34.283Z,15.70
2023-01-27T21:41:05.943Z,14.17
2023-01-27T21:44:00.316Z,18.17
2023-01-27T21:46:28.573Z,17.13
2023-01-27T21:48:56.763Z,15.63
2023-01-27T21:51:24.959Z,17.43
2023-01-27T21:53:54.543Z,17.20
2023-01-27T21:56:23.780Z,16.90
2023-01-27T21:58:51.953Z,16.83
2023-01-27T22:01:20.222Z,15.90
2023-01-27T22:03:48.561Z,17.13
2023-01-27T22:06:16.733Z,17.80
2023-01-27T22:08:44.937Z,17.90
2023-01-27T22:11:14.482Z,18.77
2023-01-27T22:13:42.703Z,16.63
2023-01-27T22:16:13.145Z,16.03
2023-01-27T22:18:41.343Z,16.37
2023-01-27T22:21:10.145Z,16.83
2023-01-27T22:23:38.320Z,16.97
2023-01-27T22:26:09.080Z,16.03
2023-01-27T22:28:38.626Z,16.30
2023-01-27T22:31:07.156Z,24.60
2023-01-27T22:33:35.384Z,19.10
2023-01-27T22:36:04.487Z,16.30
2023-01-27T22:38:32.906Z,17.30
2023-01-27T22:41:01.158Z,18.43
2023-01-27T22:43:29.345Z,17.23
2023-01-27T22:46:00.952Z,15.70
2023-01-27T22:48:29.241Z,18.27
2023-01-27T22:50:57.492Z,16.30
2023-01-27T22:53:25.674Z,17.30
2023-01-27T22:56:00.297Z,15.87
2023-01-27T22:58:28.972Z,17.90
2023-01-27T23:00:57.275Z,16.50
2023-01-27T23:03:26.837Z,16.17
2023-01-27T23:05:55.053Z,13.73
2023-01-27T23:08:23.205Z,15.57
2023-01-27T23:10:51.818Z,15.67
2023-01-27T23:13:20.448Z,16.60
2023-01-27T23:15:48.685Z,17.80
2023-01-27T23:18:17.177Z,16.40
2023-01-27T23:20:46.770Z,17.93
2023-01-27T23:23:15.670Z,15.50
2023-01-27T23:25:45.076Z,15.47
2023-01-27T23:28:13.353Z,18.13
2023-01-27T23:30:44.107Z,15.90
2023-01-27T23:33:13.144Z,15.00
2023-01-27T23:35:41.348Z,15.83
2023-01-27T23:38:26.385Z,16.80
2023-01-27T23:41:02.061Z,15.03
2023-01-27T23:43:30.921Z,17.27
2023-01-27T23:45:59.173Z,16.60
2023-01-27T23:48:27.643Z,14.83
2023-01-27T23:50:56.174Z,14.43
2023-01-27T23:53:25.808Z,15.33
2023-01-27T23:55:57.489Z,16.07
2023-01-27T23:58:25.929Z,18.80
